Latest Weather Observations for Yarram Airport

IDV60801

Issued at 9:32 pm EST Monday 25 September 2017 (issued every 30 minutes, with the page automatically refreshed every 10 minutes)

About weather observations | Map of weather stations | Latest weather observations for VIC | Other Formats
Station Details ID: 085151 Name: YARRAM AIRPORT Lat: -38.56 Lon: 146.75 Height: 17.9 m
Data from the previous 72 hours. | See also: Recent months at Yarram Airport
Date/Time
EST
Temp
°C
App
Temp
°C
Dew
Point
°C
Rel
Hum
%
Delta-T
°C
Wind Press
QNH
hPa
Press
MSL
hPa
Rain since
9am
mm
Dir  Spd
km/h
Gust
km/h
Spd
kts
Gust
kts
25/09:30pm 6.6 2.9 4.3 85 1.0 WNW 13 17 7 9 1013.4 1013.4 0.2
25/09:00pm 7.2 3.1 4.3 82 1.3 W 15 20 8 11 1013.2 1013.2 0.2
25/08:30pm 7.3 3.2 4.1 80 1.4 W 15 19 8 10 1012.8 1012.8 0.2
25/08:00pm 8.3 3.3 4.5 77 1.7 W 20 28 11 15 1012.3 1012.3 0.2
25/07:30pm 9.0 3.6 4.4 73 2.0 W 22 28 12 15 1012.0 1012.0 0.2
25/07:00pm 9.6 3.9 4.8 72 2.2 W 24 30 13 16 1011.5 1011.5 0.2
25/06:30pm 9.7 4.8 4.9 72 2.2 W 20 37 11 20 1011.1 1011.1 0.2
25/06:00pm 10.4 4.0 5.2 70 2.4 WSW 28 39 15 21 1010.7 1010.7 0.2
25/05:30pm 10.5 3.7 5.1 69 2.5 WSW 30 43 16 23 1010.2 1010.2 0.2
25/05:00pm 10.9 4.2 5.7 70 2.4 W 30 44 16 24 1009.7 1009.7 0.2
25/04:37pm 11.5 3.8 5.2 65 2.9 WSW 35 57 19 31 1009.3 1009.3 0.2
25/04:30pm 11.6 4.5 5.5 66 2.8 WSW 32 43 17 23 1009.3 1009.3 0.2
25/04:00pm 11.7 4.1 5.8 67 2.8 WSW 35 46 19 25 1008.8 1008.8 0.2
25/03:38pm 11.8 4.9 6.3 69 2.6 WSW 32 50 17 27 1008.6 1008.6 0.2
25/03:30pm 12.1 5.1 6.2 67 2.8 WSW 32 44 17 24 1008.3 1008.3 0.2
25/03:07pm 12.6 5.7 6.6 67 2.9 W 32 50 17 27 1008.0 1008.0 0.2
25/03:00pm 12.5 5.9 7.8 73 2.3 W 32 43 17 23 1008.0 1008.0 0.2
25/02:30pm 11.7 4.5 7.8 77 1.9 W 35 46 19 25 1007.9 1007.9 0.2
25/02:00pm 11.2 2.6 6.7 74 2.1 WSW 41 54 22 29 1007.8 1007.8 0.0
25/01:30pm 13.1 4.4 5.8 61 3.4 WSW 41 50 22 27 1007.2 1007.2 0.0
25/01:00pm 13.4 4.6 5.6 59 3.7 WSW 41 61 22 33 1006.9 1006.9 0.0
25/12:30pm 13.9 4.7 5.3 56 4.0 WSW 43 63 23 34 1006.8 1006.8 0.0
25/12:06pm 14.5 5.4 6.6 59 3.8 W 44 63 24 34 1006.6 1006.6 0.0
25/12:00pm 14.3 4.9 5.4 55 4.2 WSW 44 61 24 33 1006.5 1006.5 0.0
25/11:52am 14.4 5.6 5.5 55 4.2 W 41 59 22 32 1006.5 1006.5 0.0
25/11:30am 14.9 6.0 7.0 59 3.9 W 43 57 23 31 1006.6 1006.6 0.0
25/11:00am 13.4 3.9 4.8 56 4.0 WSW 44 59 24 32 1006.5 1006.5 0.0
25/10:37am 13.2 3.4 5.4 59 3.6 W 46 65 25 35 1006.2 1006.2 0.0
25/10:30am 13.5 4.8 6.1 61 3.5 W 41 57 22 31 1006.1 1006.1 0.0
25/10:25am 13.6 5.9 6.9 64 3.2 W 37 57 20 31 1006.2 1006.2 0.0
25/10:00am 13.5 5.2 7.7 68 2.9 W 41 56 22 30 1006.0 1006.0 0.0
25/09:36am 12.7 5.5 7.6 71 2.5 W 35 54 19 29 1005.9 1005.9 0.0
25/09:30am 11.8 5.0 7.9 77 1.9 W 33 48 18 26 1006.0 1006.0 0.0
25/09:14am 12.0 5.3 8.1 77 1.9 W 33 52 18 28 1005.9 1005.9 0.0
25/09:00am 11.3 4.5 7.8 79 1.7 W 33 48 18 26 1005.7 1005.7 2.8
25/08:30am 11.8 5.3 8.3 79 1.7 W 32 50 17 27 1005.1 1005.1 2.8
25/08:27am 11.8 6.0 8.1 78 1.8 W 28 50 15 27 1005.0 1005.0 2.8
25/08:00am 11.8 6.3 9.2 84 1.3 W 28 37 15 20 1004.7 1004.7 2.8
25/07:30am 10.8 5.7 9.2 90 0.8 W 26 33 14 18 1004.3 1004.3 2.8
25/07:00am 10.3 5.6 9.1 92 0.6 W 24 39 13 21 1004.2 1004.2 2.8
25/06:30am 10.3 6.3 9.2 93 0.5 W 20 26 11 14 1003.7 1003.7 2.8
25/06:00am 10.6 6.7 9.4 92 0.6 W 20 26 11 14 1003.2 1003.2 2.4
25/05:30am 10.5 6.6 9.4 93 0.5 W 20 24 11 13 1002.7 1002.7 2.4
25/05:00am 10.7 6.8 9.6 93 0.6 W 20 28 11 15 1002.4 1002.4 2.4
25/04:30am 10.6 4.7 9.0 90 0.8 WSW 30 44 16 24 1002.1 1002.1 2.4
25/04:00am 11.7 5.6 8.4 80 1.6 WNW 30 44 16 24 1001.3 1001.3 1.4
25/03:30am 12.0 5.9 8.3 78 1.8 WNW 30 48 16 26 1000.7 1000.7 1.4
25/03:01am 11.8 5.1 8.3 79 1.7 WNW 33 52 18 28 1000.5 1000.5 1.4
25/03:00am 11.7 4.6 8.2 79 1.7 WNW 35 52 19 28 1000.5 1000.5 1.4
25/02:30am 12.1 5.4 8.0 76 2.0 WNW 33 48 18 26 1000.2 1000.2 1.4
25/02:00am 12.6 5.1 7.9 73 2.3 WNW 37 50 20 27 1000.0 1000.0 1.4
25/01:30am 12.4 4.5 7.7 73 2.3 WNW 39 59 21 32 999.9 999.9 1.4
25/01:06am 12.3 5.7 7.8 74 2.2 WNW 32 50 17 27 999.9 999.9 1.4
25/01:00am 12.8 5.7 7.9 72 2.4 WNW 35 48 19 26 999.9 999.9 1.4
25/12:30am 12.5 4.2 7.8 73 2.3 WNW 41 61 22 33 999.7 999.7 1.4
25/12:13am 12.4 5.8 8.5 77 1.9 WNW 33 59 18 32 999.5 999.5 1.4
25/12:00am 12.2 5.8 8.7 79 1.8 WNW 32 43 17 23 999.6 999.6 1.4
 
Date/Time
EST
Temp
°C
App
Temp
°C
Dew
Point
°C
Rel
Hum
%
Delta-T
°C
Wind Press
QNH
hPa
Press
MSL
hPa
Rain since
9am
mm
Dir  Spd
km/h
Gust
km/h
Spd
kts
Gust
kts
24/11:45pm 12.4 5.3 8.1 75 2.1 WNW 35 54 19 29 999.7 999.7 1.4
24/11:30pm 13.4 5.8 7.4 67 2.9 WNW 37 54 20 29 999.5 999.5 1.4
24/11:01pm 14.3 5.7 6.6 60 3.7 WNW 41 59 22 32 999.1 999.1 1.4
24/11:00pm 14.3 5.7 6.6 60 3.7 WNW 41 57 22 31 999.2 999.2 1.4
24/10:30pm 14.7 5.0 6.0 56 4.2 WNW 46 72 25 39 998.4 998.4 1.4
24/10:03pm 14.9 6.9 5.7 54 4.4 WNW 37 61 20 33 998.5 998.5 1.4
24/10:00pm 14.4 7.3 6.3 58 3.9 WNW 33 50 18 27 998.6 998.6 1.4
24/09:57pm 14.5 7.5 6.1 57 4.0 WNW 32 50 17 27 998.5 998.5 1.4
24/09:30pm 13.0 8.0 6.6 65 3.1 WNW 22 35 12 19 998.5 998.5 1.4
24/09:00pm 12.9 5.6 7.1 68 2.8 NW 35 48 19 26 998.2 998.2 1.4
24/08:49pm 13.3 6.6 7.3 67 2.9 WNW 32 70 17 38 998.4 998.4 1.4
24/08:48pm 13.5 7.6 7.5 67 2.9 WNW 28 52 15 28 998.6 998.6 1.2
24/08:30pm 12.6 7.7 7.1 69 2.7 WNW 22 33 12 18 997.8 997.8 1.2
24/08:00pm 12.7 8.6 8.0 73 2.3 WNW 19 32 10 17 997.8 997.8 1.2
24/07:30pm 12.4 8.2 8.3 76 2.0 W 20 30 11 16 997.9 997.9 1.2
24/07:12pm 13.7 7.8 7.7 67 3.0 WNW 28 48 15 26 998.2 998.2 1.0
24/07:00pm 14.3 9.8 6.9 61 3.6 WNW 20 30 11 16 997.2 997.2 1.0
24/06:30pm 13.7 8.4 6.6 62 3.4 NW 24 32 13 17 996.4 996.4 1.0
24/06:00pm 13.4 8.6 7.4 67 3.0 NW 22 35 12 19 996.6 996.6 1.0
24/05:30pm 13.0 6.2 7.9 71 2.5 WNW 33 63 18 34 996.6 996.6 1.0
24/05:22pm 13.4 3.4 8.0 70 2.7 WNW 50 70 27 38 996.8 996.8 1.0
24/05:15pm 14.6 7.3 7.2 61 3.6 NW 35 70 19 38 996.7 996.7 1.0
24/05:14pm 15.4 8.6 6.7 56 4.2 NW 32 70 17 38 996.8 996.8 1.0
24/05:00pm 16.0 9.9 6.4 53 4.7 NW 28 48 15 26 995.8 995.8 1.0
24/04:59pm 16.2 9.9 5.8 50 5.0 NW 28 48 15 26 995.7 995.7 1.0
24/04:30pm 16.2 10.3 7.4 56 4.4 NW 28 43 15 23 995.6 995.6 1.0
24/04:13pm 16.3 7.9 5.6 49 5.1 NW 39 74 21 40 995.7 995.7 1.0
24/04:00pm 17.4 9.8 5.7 46 5.7 NW 35 50 19 27 995.3 995.3 1.0
24/03:30pm 17.8 8.4 5.4 44 6.0 WNW 44 67 24 36 995.3 995.3 1.0
24/03:11pm 18.0 9.0 4.6 41 6.4 NW 41 61 22 33 995.2 995.2 1.0
24/03:00pm 18.2 10.9 5.4 43 6.3 NW 33 50 18 27 995.3 995.3 1.0
24/02:30pm 18.0 8.7 5.2 43 6.2 NW 43 69 23 37 995.8 995.8 1.0
24/02:00pm 18.0 10.6 6.8 48 5.6 WNW 35 65 19 35 996.0 996.0 1.0
24/01:30pm 17.8 10.4 6.7 48 5.5 WNW 35 54 19 29 996.4 996.4 1.0
24/01:24pm 17.5 10.5 6.1 47 5.6 WNW 32 50 17 27 996.5 996.5 1.0
24/01:00pm 16.9 9.3 7.5 54 4.8 WNW 37 52 20 28 996.9 996.9 1.0
24/12:30pm 16.5 8.5 7.4 55 4.5 WNW 39 56 21 30 996.9 996.9 1.0
24/12:00pm 15.7 8.6 8.2 61 3.8 WNW 35 56 19 30 997.1 997.1 1.0
24/11:48am 16.3 9.3 6.7 53 4.7 WNW 33 67 18 36 997.1 997.1 1.0
24/11:44am 16.6 10.8 9.3 62 3.8 WNW 30 48 16 26 997.2 997.2 1.0
24/11:30am 15.7 9.0 8.0 60 3.9 WNW 33 46 18 25 997.4 997.4 1.0
24/11:04am 15.6 8.7 8.8 64 3.5 WNW 35 54 19 29 997.5 997.5 1.0
24/11:00am 15.4 8.0 8.4 63 3.6 WNW 37 54 20 29 997.6 997.6 1.0
24/10:30am 14.4 8.0 9.4 72 2.6 WNW 33 56 18 30 997.8 997.8 1.0
24/10:23am 13.8 7.8 8.8 72 2.5 WNW 30 48 16 26 997.9 997.9 1.0
24/10:00am 11.8 7.9 9.4 85 1.2 WNW 20 32 11 17 998.3 998.3 1.0
24/09:30am 10.1 1.8 7.7 85 1.2 W 41 61 22 33 998.3 998.3 0.6
24/09:27am 9.8 0.3 6.9 82 1.4 W 46 63 25 34 998.3 998.3 0.4
24/09:22am 11.4 2.1 5.9 69 2.6 WNW 44 63 24 34 998.1 998.1 0.0
24/09:09am 15.4 8.1 7.2 58 4.0 NW 35 54 19 29 996.8 996.8 0.0
24/09:00am 15.4 8.6 7.7 60 3.9 NW 33 48 18 26 996.6 996.6 0.0
24/08:36am 14.5 7.7 6.8 60 3.7 NNW 32 50 17 27 996.6 996.6 0.0
24/08:30am 15.0 7.6 6.6 57 4.1 NW 35 50 19 27 996.5 996.5 0.0
24/08:13am 15.8 8.7 5.4 50 5.0 NW 32 50 17 27 996.3 996.3 0.0
24/08:00am 15.6 9.4 6.1 53 4.6 NW 28 39 15 21 996.1 996.1 0.0
24/07:52am 15.4 11.2 5.9 53 4.6 NNW 17 37 9 20 995.9 995.9 0.0
24/07:30am 14.7 12.8 6.5 58 4.0 N 6 7 3 4 996.1 996.1 0.0
24/07:00am 13.5 10.8 5.7 59 3.7 NW 9 15 5 8 996.5 996.5 0.0
24/06:30am 12.0 8.0 5.0 62 3.2 NW 15 20 8 11 997.0 997.0 0.0
24/06:00am 12.2 7.8 4.7 60 3.5 WNW 17 20 9 11 997.2 997.2 0.0
24/05:30am 12.7 8.1 5.8 63 3.2 NW 19 26 10 14 997.3 997.3 0.0
24/05:00am 13.3 8.8 6.2 62 3.4 NW 19 28 10 15 997.4 997.4 0.0
24/04:30am 13.8 8.9 6.9 63 3.3 WNW 22 33 12 18 997.3 997.3 0.0
24/04:00am 13.8 7.0 7.1 64 3.3 WNW 32 46 17 25 997.2 997.2 0.0
24/03:53am 14.1 8.1 7.2 63 3.4 NW 28 46 15 25 997.2 997.2 0.0
24/03:30am 13.6 8.8 7.4 66 3.0 WNW 22 32 12 17 997.0 997.0 0.0
24/03:00am 13.9 8.4 7.7 66 3.1 WNW 26 35 14 19 996.9 996.9 0.0
24/02:30am 14.2 9.3 8.6 69 2.8 WNW 24 37 13 20 996.8 996.8 0.0
24/02:00am 13.8 10.0 9.0 73 2.5 WNW 19 28 10 15 996.9 996.9 0.0
24/01:30am 14.4 9.2 9.0 70 2.7 WNW 26 39 14 21 997.1 997.1 0.0
24/01:00am 14.4 9.2 9.0 70 2.8 WNW 26 39 14 21 997.3 997.3 0.0
24/12:30am 14.4 10.5 9.6 73 2.5 W 20 32 11 17 997.4 997.4 0.0
24/12:00am 14.4 10.5 9.4 72 2.6 W 20 33 11 18 997.2 997.2 0.0
 
Date/Time
EST
Temp
°C
App
Temp
°C
Dew
Point
°C
Rel
Hum
%
Delta-T
°C
Wind Press
QNH
hPa
Press
MSL
hPa
Rain since
9am
mm
Dir  Spd
km/h
Gust
km/h
Spd
kts
Gust
kts
23/11:30pm 14.2 11.7 9.6 74 2.4 WNW 13 22 7 12 997.3 997.3 0.0
23/11:00pm 14.0 10.7 9.6 75 2.3 WSW 17 24 9 13 997.2 997.2 0.0
23/10:30pm 14.4 11.2 9.8 74 2.4 WSW 17 24 9 13 997.2 997.2 0.0
23/10:00pm 14.2 10.3 9.6 74 2.4 WSW 20 30 11 16 997.4 997.4 0.0
23/09:30pm 14.7 10.5 9.7 72 2.6 W 22 32 12 17 997.4 997.4 0.0
23/09:00pm 14.4 9.7 9.4 72 2.6 W 24 35 13 19 997.3 997.3 0.0
23/08:30pm 14.3 9.5 8.9 70 2.7 W 24 33 13 18 997.5 997.5 0.0
23/08:00pm 14.3 9.5 8.7 69 2.9 W 24 39 13 21 996.8 996.8 0.0
23/07:30pm 14.7 7.9 9.1 69 2.9 WSW 35 46 19 25 995.8 995.8 0.0
23/07:09pm 14.7 7.1 10.5 76 2.2 WSW 41 59 22 32 995.2 995.2 0.0
23/07:00pm 14.8 6.8 10.6 76 2.2 WSW 43 57 23 31 995.2 995.2 0.0
23/06:30pm 16.6 6.4 10.2 66 3.4 WSW 54 80 29 43 993.4 993.4 0.0
23/06:17pm 19.4 12.9 10.4 56 4.9 WSW 35 76 19 41 992.0 992.0 0.0
23/06:15pm 19.1 13.9 11.7 62 4.1 WSW 30 54 16 29 991.7 991.7 0.0
23/06:00pm 16.3 12.4 10.8 70 3.0 WSW 22 28 12 15 990.6 990.6 0.0
23/05:30pm 15.8 13.5 11.6 76 2.3 WSW 15 19 8 10 989.1 989.1 0.0
23/05:00pm 16.4 14.0 11.3 72 2.8 SW 15 19 8 10 988.3 988.3 0.0
23/04:30pm 18.8 17.7 13.0 69 3.3 SSW 11 17 6 9 988.3 988.3 0.0
23/04:00pm 20.8 19.9 11.2 54 5.3 SSW 7 9 4 5 988.2 988.2 0.0
23/03:30pm 22.5 22.2 10.0 45 6.8 SW 2 9 1 5 989.0 989.0 0.0
23/03:00pm 22.6 22.2 9.7 44 7.1 WSW 2 9 1 5 989.3 989.3 0.0
23/02:30pm 22.1 20.0 8.2 41 7.3 SSW 9 15 5 8 989.9 989.9 0.0
23/02:00pm 22.1 19.8 10.6 48 6.4 SSW 13 19 7 10 990.8 990.8 0.0
23/01:30pm 21.4 17.1 8.0 42 7.0 SSW 20 26 11 14 991.6 991.6 0.0
23/01:00pm 21.6 17.0 9.5 46 6.6 SSW 24 32 13 17 991.8 991.8 0.0
23/12:43pm 22.1 17.9 11.2 50 6.0 SSW 24 35 13 19 992.0 992.0 0.0
23/12:30pm 24.4 23.5 13.6 51 6.3 S 11 17 6 9 992.0 992.0 0.0
23/12:00pm 23.7 21.5 12.0 48 6.7 SSW 15 19 8 10 993.0 993.0 0.0
23/11:30am 23.9 21.1 12.5 49 6.5 SSW 19 26 10 14 993.8 993.8 0.0
23/11:00am 25.0 22.2 8.5 35 8.9 SW 13 20 7 11 994.6 994.6 0.0
23/10:30am 23.8 21.8 11.5 46 6.9 N 13 19 7 10 995.0 995.0 0.0
23/10:00am 22.1 24.0 15.7 67 3.9 CALM 0 6 0 3 996.1 996.1 0.0
23/09:30am 22.8 22.3 10.6 46 6.7 N 4 9 2 5 996.7 996.7 0.0
23/09:00am 20.5 19.6 11.2 55 5.2 WNW 7 17 4 9 997.4 997.4 0.0
23/08:30am 20.2 17.5 7.2 43 6.6 N 11 17 6 9 997.5 997.5 0.0
23/08:00am 20.2 16.5 4.3 35 7.7 NNW 13 19 7 10 998.1 998.1 0.0
23/07:30am 20.1 14.1 3.3 33 7.9 N 24 30 13 16 998.1 998.1 0.0
23/07:00am 19.1 16.0 3.7 36 7.3 NNE 9 32 5 17 998.1 998.1 0.0
23/06:30am 14.6 10.8 5.7 55 4.2 NE 15 17 8 9 998.0 998.0 0.0
23/06:00am 12.7 9.3 6.1 64 3.1 ENE 13 17 7 9 998.7 998.7 0.0
23/05:30am 8.7 6.0 5.8 82 1.3 NE 9 11 5 6 999.2 999.2 0.0
23/05:00am 9.5 8.9 7.6 88 0.9 CALM 0 0 0 0 999.4 999.4 0.0
23/04:30am 10.5 8.7 7.9 84 1.3 ENE 7 11 4 6 1000.1 1000.1 0.0
23/04:00am 11.3 8.6 8.9 85 1.2 ESE 13 15 7 8 1000.3 1000.3 0.0
23/03:30am 13.3 10.4 9.7 79 1.8 E 15 20 8 11 1000.8 1000.8 0.0
23/03:00am 13.4 11.3 9.8 79 1.9 ENE 11 15 6 8 1001.5 1001.5 0.0
23/02:30am 13.3 10.6 10.5 83 1.5 ENE 15 19 8 10 1001.9 1001.9 0.0
23/02:00am 12.8 10.3 10.9 88 1.0 NE 15 20 8 11 1002.2 1002.2 0.0
23/01:30am 11.9 9.0 11.0 94 0.5 NNE 17 19 9 10 1002.9 1002.9 0.0
23/01:00am 10.8 8.9 9.2 90 0.8 NNW 9 13 5 7 1003.7 1003.7 0.0
23/12:30am 12.4 11.1 11.1 92 0.7 NE 9 13 5 7 1003.9 1003.9 0.0
23/12:00am 12.0 10.4 11.4 96 0.3 NE 11 19 6 10 1004.0 1004.0 0.0
 
Date/Time
EST
Temp
°C
App
Temp
°C
Dew
Point
°C
Rel
Hum
%
Delta-T
°C
Wind Press
QNH
hPa
Press
MSL
hPa
Rain since
9am
mm
Dir  Spd
km/h
Gust
km/h
Spd
kts
Gust
kts
22/11:30pm 9.6 9.3 8.7 94 0.4 CALM 0 0 0 0 1004.6 1004.6 0.0
22/11:00pm 9.6 9.2 8.2 91 0.7 CALM 0 0 0 0 1005.2 1005.2 0.0
22/10:30pm 11.0 9.5 9.3 89 0.9 W 7 9 4 5 1005.6 1005.6 0.0
22/10:00pm 13.3 11.1 10.8 85 1.3 NE 13 17 7 9 1005.8 1005.8 0.0

Other Formats:

Comma delimited format used in spreadsheet applications
http://www.bom.gov.au/fwo/IDV60801/IDV60801.95890.axf

JavaScript Object Notation format (JSON) in row-major order
http://www.bom.gov.au/fwo/IDV60801/IDV60801.95890.json